Aérodrome :
LOGIN :

S'inscrire | Disclaimer

   EN    FR    IT 

 










Légende :    VFR   VFR Marginal   IFR   IFR Intensif   IFR Très Intensif
Visi : 
Plafond : 
>= 8 km
>= 3000ft
5 à 8 km
1000 à 3000 ft
1500m à 5 km
500 à 1000 ft
800 à 1500m
200 à 500 ft
< 800m
< 200 ft
Symboles :   Orages  Brouillard  Fortes neiges  Fortes précipitations  Vent > 20 kt
SIGMETs :   Divers  Orages  Givrage  Turbulence  Onde Orograph.  Cendres Volcan.






- Altitude de l'aérodrome : 978 ft
- Code IATA : LNZ


LOWL - Linz

DERNIER METAR :
  • 112020Z AUTO 31008KT 5000 BR FEW003 BKN005 02/02 Q1008 TEMPO 4000

METARs EXPIRÉS :
  • 111950Z AUTO 31007KT 5000 BR FEW003 SCT004 BKN006 02/02 Q1008 TEMPO BKN005
  • 111920Z AUTO 33006KT 6000 FEW005 OVC006 02/02 Q1008 TEMPO 4000 BR
  • 111850Z AUTO 33005KT 8000 FEW005 BKN006 02/01 Q1008 NOSIG
  • 111820Z AUTO 34004KT 4900 BR BKN005 02/02 Q1008 TEMPO 4000 BR
  • 111750Z AUTO 36005KT 7000 FEW004 OVC005 02/02 Q1008 NOSIG

TAF AMD TAF LOWL
Valide du 11 à 18h jusqu'au 12 à 18h UTC


111819Z 1118/1218 08005KT 5000 BR BKN005 TX04/1201Z TN02/1118Z
TEMPO 1118/1124 3500 BR
BECMG 1122/1124 26005KT SCT010 BKN050
PROB40
TEMPO 1200/1206 VRB02KT 2000 -DZ BKN008
BECMG 1206/1208 8000 -RA BKN020
TEMPO 1216/1218 3000 RA BKN012



MET'MAP, la Météo Aéronautique d'un coup d'oeil ! - Copyright ORBIFLY Décembre 2007 - Disclaimer

ORBIFLY MET'MAP TEAM :

Programmation & Développement : Alexandra Zaïnal
Conception & Développement : Baudouin d'Aumeries
Co-Programmation & Développement : Marc-Olivier Méhu
Soutien technique & logistique : Manuel Goepfert

Contact : metmap@orbifly.com




SOURCES & CREDITS :

   NOAA